Time;durP1;ratioP1;P1;durP2;ratioP2;P2;SDS_P1;SDS_P2;PMS_P1;PMS_P2;Temp;Humidity;BMP_temperature;BMP_pressure;BME280_temperature;BME280_humidity;BME280_pressure;Samples;Min_cycle;Max_cycle;Signal;HPM_P1;HPM_P2
2021/11/19 00:02:17;;;;;;;0.40;0.40;;;;;;;10.56;84.12;100768.47;1726669;83;21113;-74
2021/11/19 00:04:44;;;;;;;0.68;0.30;;;;;;;10.58;84.19;100761.06;1726819;83;21027;-74
2021/11/19 00:07:11;;;;;;;1.05;0.60;;;;;;;10.61;84.25;100767.73;1726701;83;21089;-74
2021/11/19 00:09:38;;;;;;;0.55;0.40;;;;;;;10.63;84.25;100766.02;1726591;83;21093;-74
2021/11/19 00:12:06;;;;;;;1.22;0.53;;;;;;;10.67;84.28;100760.41;1726744;83;21917;-74
2021/11/19 00:14:33;;;;;;;1.15;0.50;;;;;;;10.70;84.32;100771.03;1726365;83;21246;-74
2021/11/19 00:17:05;;;;;;;1.57;0.50;;;;;;;10.73;84.34;100770.20;1723921;83;21093;-74
2021/11/19 00:19:30;;;;;;;0.93;0.45;;;;;;;10.74;84.35;100766.73;1726074;83;21081;-73
2021/11/19 00:21:57;;;;;;;0.35;0.35;;;;;;;10.75;84.39;100755.33;1704599;83;21085;-72
2021/11/19 00:24:24;;;;;;;0.37;0.35;;;;;;;10.74;84.35;100766.30;1704792;84;21750;-72
2021/11/19 00:26:51;;;;;;;0.62;0.50;;;;;;;10.76;84.34;100758.44;1705180;84;20999;-72
2021/11/19 00:29:18;;;;;;;0.45;0.45;;;;;;;10.76;84.35;100756.69;1704637;84;21198;-72
2021/11/19 00:31:44;;;;;;;0.40;0.40;;;;;;;10.78;84.36;100752.34;1704553;84;21161;-72
2021/11/19 00:34:11;;;;;;;0.35;0.35;;;;;;;10.81;84.41;100760.73;1704611;84;21077;-72
2021/11/19 00:36:38;;;;;;;0.30;0.30;;;;;;;10.84;84.42;100769.60;1705001;84;21807;-72
2021/11/19 00:39:09;;;;;;;2.08;0.30;;;;;;;10.85;84.34;100771.39;1704418;84;21062;-72
2021/11/19 00:41:36;;;;;;;1.00;0.35;;;;;;;10.88;84.35;100759.59;1704583;84;21840;-72
2021/11/19 00:44:04;;;;;;;0.30;0.30;;;;;;;10.91;84.32;100769.77;1704353;84;21085;-72
2021/11/19 00:46:30;;;;;;;0.20;0.20;;;;;;;10.93;84.20;100760.16;1704961;84;21092;-72
2021/11/19 00:48:57;;;;;;;1.42;0.45;;;;;;;10.93;84.24;100770.26;1704966;84;21768;-72
2021/11/19 00:51:31;;;;;;;0.45;0.30;;;;;;;10.96;84.25;100769.03;1704968;84;21666;-72
2021/11/19 00:53:59;;;;;;;0.30;0.30;;;;;;;10.96;84.25;100772.98;1705061;84;21081;-72
2021/11/19 00:56:31;;;;;;;0.80;0.40;;;;;;;10.98;84.31;100769.03;1704435;84;21081;-72
2021/11/19 00:58:57;;;;;;;0.30;0.30;;;;;;;10.98;84.30;100776.94;1702918;84;21355;-72
2021/11/19 01:01:32;;;;;;;0.33;0.30;;;;;;;10.99;84.32;100761.61;1704345;84;22527;-72
2021/11/19 01:03:59;;;;;;;0.47;0.30;;;;;;;11.00;84.30;100764.69;1697773;84;21121;-72
2021/11/19 01:06:27;;;;;;;0.47;0.20;;;;;;;11.00;84.29;100765.61;1704639;84;21066;-73
2021/11/19 01:09:06;;;;;;;0.60;0.28;;;;;;;11.00;84.28;100774.83;1704537;82;21069;-73
2021/11/19 01:11:34;;;;;;;0.50;0.33;;;;;;;11.03;84.30;100780.58;1704696;83;21395;-73
2021/11/19 01:14:03;;;;;;;0.40;0.30;;;;;;;11.06;84.26;100776.71;1704264;83;21789;-73
2021/11/19 01:16:39;;;;;;;0.20;0.20;;;;;;;11.08;84.26;100785.53;1704443;83;21101;-73
2021/11/19 01:19:14;;;;;;;0.30;0.30;;;;;;;11.08;84.24;100779.83;1704721;83;21077;-73
2021/11/19 01:21:54;;;;;;;0.50;0.35;;;;;;;11.10;84.20;100789.09;1711892;83;21096;-73
2021/11/19 01:24:21;;;;;;;0.53;0.40;;;;;;;11.09;84.17;100788.22;1722731;83;21069;-73
2021/11/19 01:26:48;;;;;;;0.33;0.33;;;;;;;11.12;84.19;100804.50;1723302;83;21737;-73
2021/11/19 01:29:18;;;;;;;0.65;0.40;;;;;;;11.15;84.17;100799.72;1723032;83;21599;-73
2021/11/19 01:32:01;;;;;;;1.12;0.70;;;;;;;11.17;84.14;100793.66;1723814;83;21117;-73
2021/11/19 01:34:29;;;;;;;2.25;0.60;;;;;;;11.20;84.08;100800.73;1723461;83;21191;-73
2021/11/19 01:36:56;;;;;;;1.12;0.82;;;;;;;11.21;84.01;100790.23;1723733;83;21070;-73
2021/11/19 01:39:26;;;;;;;0.98;0.50;;;;;;;11.21;84.02;100807.36;1723300;82;22653;-73
2021/11/19 01:42:17;;;;;;;2.30;0.50;;;;;;;11.24;83.97;100798.63;1724187;83;21010;-73
2021/11/19 01:45:19;;;;;;;0.57;0.53;;;;;;;11.26;83.92;100798.23;1723634;82;21351;-73
2021/11/19 01:47:51;;;;;;;1.10;0.53;;;;;;;11.24;83.87;100782.81;1723007;83;21194;-73
2021/11/19 01:50:25;;;;;;;0.80;0.40;;;;;;;11.30;83.86;100777.70;1722831;83;21058;-74
2021/11/19 01:52:57;;;;;;;1.35;0.60;;;;;;;11.32;83.80;100784.30;1723501;83;21783;-73
2021/11/19 01:55:34;;;;;;;1.50;0.60;;;;;;;11.32;83.69;100787.85;1719575;83;21595;-73
2021/11/19 01:58:13;;;;;;;2.10;0.57;;;;;;;11.33;83.65;100780.83;1723580;83;21094;-73
2021/11/19 02:00:45;;;;;;;1.50;0.80;;;;;;;11.33;83.58;100788.30;1723733;83;21181;-74
2021/11/19 02:03:13;;;;;;;2.00;0.90;;;;;;;11.35;83.55;100794.48;1723568;83;21042;-73
2021/11/19 02:06:06;;;;;;;2.90;0.90;;;;;;;11.39;83.48;100788.86;1723696;83;21997;-73
2021/11/19 02:08:37;;;;;;;5.05;1.32;;;;;;;11.41;83.40;100789.78;1723512;83;22140;-73
2021/11/19 02:11:15;;;;;;;1.80;0.78;;;;;;;11.42;83.20;100797.73;1723844;83;21091;-73
2021/11/19 02:14:14;;;;;;;2.77;1.17;;;;;;;11.45;83.14;100804.83;1723622;83;21089;-73
2021/11/19 02:16:56;;;;;;;5.15;1.42;;;;;;;11.45;83.04;100795.17;1723657;83;21089;-73
2021/11/19 02:19:30;;;;;;;1.65;1.00;;;;;;;11.46;82.92;100795.61;1723605;83;21799;-73
2021/11/19 02:22:18;;;;;;;2.58;1.12;;;;;;;11.47;82.85;100790.81;1723636;82;21031;-73
2021/11/19 02:25:04;;;;;;;3.27;0.98;;;;;;;11.50;82.75;100794.38;1723667;83;21062;-73
2021/11/19 02:27:48;;;;;;;4.60;1.65;;;;;;;11.51;82.66;100794.41;1723752;83;21762;-72
2021/11/19 02:30:19;;;;;;;4.85;1.57;;;;;;;11.53;82.53;100800.61;1722890;83;21069;-72
2021/11/19 02:32:51;;;;;;;5.95;0.93;;;;;;;11.55;82.41;100815.14;1723680;83;23068;-72
2021/11/19 02:35:23;;;;;;;2.67;1.10;;;;;;;11.56;82.26;100819.55;1723689;83;21078;-72
2021/11/19 02:37:54;;;;;;;6.58;1.20;;;;;;;11.57;82.21;100824.86;1722621;83;21089;-72
2021/11/19 02:40:25;;;;;;;5.45;1.37;;;;;;;11.60;82.11;100817.43;1723669;83;21124;-73
2021/11/19 02:42:57;;;;;;;3.77;1.20;;;;;;;11.62;81.98;100807.84;1723695;82;21120;-72
2021/11/19 02:45:31;;;;;;;4.92;1.70;;;;;;;11.62;81.90;100794.66;1723572;82;21776;-72
2021/11/19 02:47:58;;;;;;;2.25;1.05;;;;;;;11.65;81.86;100798.66;1723750;83;21038;-72
2021/11/19 02:50:25;;;;;;;5.08;1.77;;;;;;;11.65;81.71;100792.94;1723721;83;21105;-72
2021/11/19 02:52:53;;;;;;;3.45;1.20;;;;;;;11.67;81.67;100792.98;1723807;83;21667;-73
2021/11/19 02:55:24;;;;;;;3.58;1.22;;;;;;;11.67;81.58;100807.08;1723936;83;21046;-72
2021/11/19 02:57:51;;;;;;;7.45;1.40;;;;;;;11.67;81.56;100810.13;1723759;82;21704;-72
2021/11/19 03:00:25;;;;;;;5.25;1.67;;;;;;;11.70;81.50;100829.09;1723677;82;21554;-72
2021/11/19 03:02:52;;;;;;;3.12;1.12;;;;;;;11.70;81.41;100827.34;1722138;82;21120;-72
2021/11/19 03:05:21;;;;;;;4.42;1.32;;;;;;;11.71;81.33;100833.05;1753918;81;21295;-72
2021/11/19 03:07:48;;;;;;;3.77;1.37;;;;;;;11.70;81.27;100828.66;1723788;83;21061;-72
2021/11/19 03:10:22;;;;;;;3.90;1.45;;;;;;;11.71;81.23;100830.41;1722100;82;21831;-72
2021/11/19 03:12:49;;;;;;;5.97;1.67;;;;;;;11.72;81.22;100836.61;1747588;81;21054;-72
2021/11/19 03:15:24;;;;;;;5.83;1.67;;;;;;;11.72;81.17;100836.17;1731368;82;21081;-72
2021/11/19 03:17:51;;;;;;;4.47;1.90;;;;;;;11.72;81.13;100840.56;1731504;82;21094;-72
2021/11/19 03:20:19;;;;;;;5.42;1.55;;;;;;;11.73;81.05;100841.00;1706506;82;22132;-72
2021/11/19 03:22:46;;;;;;;5.50;1.65;;;;;;;11.73;81.05;100843.23;1724849;82;21812;-72
2021/11/19 03:25:15;;;;;;;3.80;1.37;;;;;;;11.73;80.94;100832.69;1720332;83;21564;-71
2021/11/19 03:27:43;;;;;;;5.08;1.70;;;;;;;11.73;80.86;100830.05;1720493;82;21641;-72
2021/11/19 03:30:12;;;;;;;4.75;1.42;;;;;;;11.73;80.81;100825.19;1720437;83;21719;-72
2021/11/19 03:32:40;;;;;;;5.28;1.50;;;;;;;11.74;80.77;100833.13;1720261;83;21070;-72
2021/11/19 03:35:07;;;;;;;8.15;2.17;;;;;;;11.75;80.74;100849.84;1720258;83;21816;-72
2021/11/19 03:37:34;;;;;;;11.33;2.08;;;;;;;11.75;80.64;100856.02;1720145;83;21058;-72
2021/11/19 03:40:04;;;;;;;4.83;1.60;;;;;;;11.76;80.54;100864.81;1719324;83;21082;-72
2021/11/19 03:42:31;;;;;;;4.80;1.42;;;;;;;11.77;80.47;100858.67;1720584;83;21101;-72
2021/11/19 03:45:00;;;;;;;8.73;1.82;;;;;;;11.76;80.38;100857.78;1720513;83;21070;-72
2021/11/19 03:47:35;;;;;;;6.83;1.50;;;;;;;11.76;80.33;100840.64;1720560;83;21770;-72
2021/11/19 03:50:00;;;;;;;4.85;1.50;;;;;;;11.78;80.26;100833.66;1719940;83;21011;-72
2021/11/19 03:52:32;;;;;;;5.33;1.22;;;;;;;11.77;80.18;100838.48;1720358;83;21415;-72
2021/11/19 03:55:03;;;;;;;3.60;1.30;;;;;;;11.78;80.11;100826.18;1720280;83;21058;-72
2021/11/19 03:57:30;;;;;;;5.03;2.08;;;;;;;11.77;80.03;100827.94;1720609;83;21019;-72
2021/11/19 03:59:56;;;;;;;7.00;1.72;;;;;;;11.73;79.88;100836.64;1720198;83;21988;-72
2021/11/19 04:02:26;;;;;;;5.53;1.72;;;;;;;11.70;79.90;100844.91;1720250;83;21053;-72
2021/11/19 04:04:53;;;;;;;8.88;1.65;;;;;;;11.68;79.94;100829.05;1720430;83;21562;-71
2021/11/19 04:07:23;;;;;;;6.87;1.65;;;;;;;11.71;80.01;100837.02;1720370;82;21153;-72
2021/11/19 04:09:51;;;;;;;8.25;1.87;;;;;;;11.72;79.99;100840.13;1719844;83;21113;-72
2021/11/19 04:12:18;;;;;;;4.95;1.60;;;;;;;11.72;79.95;100841.88;1720112;83;22176;-72
2021/11/19 04:14:45;;;;;;;6.35;1.65;;;;;;;11.72;79.90;100827.37;1720664;83;21073;-72
2021/11/19 04:17:12;;;;;;;5.47;1.70;;;;;;;11.67;79.69;100828.17;1720739;83;21133;-72
2021/11/19 04:19:38;;;;;;;7.58;1.85;;;;;;;11.62;79.70;100819.70;1720509;83;21182;-72
2021/11/19 04:22:11;;;;;;;5.22;1.35;;;;;;;11.59;79.80;100819.19;1720331;83;21197;-72
2021/11/19 04:24:44;;;;;;;6.47;1.70;;;;;;;11.58;79.78;100820.06;1720391;83;21867;-72
2021/11/19 04:27:11;;;;;;;5.40;1.55;;;;;;;11.61;79.86;100828.45;1718378;82;21063;-72
2021/11/19 04:29:37;;;;;;;6.15;2.00;;;;;;;11.64;79.87;100831.17;1720299;83;21086;-72
2021/11/19 04:32:04;;;;;;;8.83;2.12;;;;;;;11.66;79.83;100836.05;1720361;83;21726;-72
2021/11/19 04:34:33;;;;;;;6.83;1.72;;;;;;;11.67;79.77;100833.85;1686628;83;21177;-72
2021/11/19 04:36:59;;;;;;;8.55;2.10;;;;;;;11.67;79.67;100841.77;1720271;83;22553;-72
2021/11/19 04:39:26;;;;;;;6.30;2.52;;;;;;;11.64;79.52;100853.14;1720177;83;21316;-72
2021/11/19 04:41:53;;;;;;;8.98;2.05;;;;;;;11.58;79.30;100838.52;1720342;83;21046;-72
2021/11/19 04:44:20;;;;;;;7.90;2.62;;;;;;;11.48;79.31;100841.34;1720089;83;21152;-72
2021/11/19 04:46:47;;;;;;;5.97;1.82;;;;;;;11.45;79.43;100842.61;1720268;82;21097;-71
2021/11/19 04:49:14;;;;;;;7.42;1.98;;;;;;;11.45;79.47;100827.23;1720179;83;21270;-71
2021/11/19 04:51:42;;;;;;;9.25;3.15;;;;;;;11.40;79.36;100836.34;1720241;83;21424;-72
2021/11/19 04:54:10;;;;;;;10.58;3.22;;;;;;;11.31;79.33;100833.48;1720360;82;21078;-72
2021/11/19 04:56:39;;;;;;;9.03;3.20;;;;;;;11.28;79.55;100834.76;1720374;83;21085;-71
2021/11/19 04:59:06;;;;;;;6.35;2.05;;;;;;;11.29;79.66;100823.34;1692364;83;21159;-72
2021/11/19 05:01:37;;;;;;;7.75;2.00;;;;;;;11.26;79.51;100823.26;1720404;83;21751;-72
2021/11/19 05:04:05;;;;;;;10.53;2.52;;;;;;;11.20;79.40;100825.33;1720230;83;21523;-72
2021/11/19 05:06:34;;;;;;;7.72;2.25;;;;;;;11.15;79.55;100822.12;1691547;83;21348;-72
2021/11/19 05:09:04;;;;;;;10.08;2.30;;;;;;;11.10;79.57;100825.97;1658612;84;21760;-72
2021/11/19 05:11:39;;;;;;;6.62;2.42;;;;;;;11.07;79.52;100824.17;1691356;83;21140;-72
2021/11/19 05:14:05;;;;;;;7.15;2.45;;;;;;;11.01;79.52;100821.80;1690291;84;21743;-72
2021/11/19 05:16:33;;;;;;;7.90;2.05;;;;;;;11.00;79.79;100811.70;1691040;83;21015;-73
2021/11/19 05:19:01;;;;;;;8.83;2.27;;;;;;;11.01;79.77;100816.09;1691154;84;21124;-73
2021/11/19 05:21:28;;;;;;;9.60;2.87;;;;;;;11.00;79.78;100815.65;1690930;83;21181;-76
2021/11/19 05:23:56;;;;;;;10.45;4.33;;;;;;;11.03;79.89;100824.04;1646058;86;46741;-77
2021/11/19 05:26:23;;;;;;;13.55;5.12;;;;;;;11.07;79.92;100824.17;1637709;86;21827;-76
2021/11/19 05:28:53;;;;;;;12.30;4.58;;;;;;;11.09;79.83;100826.41;1660930;84;21157;-76
2021/11/19 05:31:24;;;;;;;9.15;3.42;;;;;;;11.12;79.83;100817.67;1689823;84;21077;-76
2021/11/19 05:33:50;;;;;;;8.28;4.53;;;;;;;11.15;79.84;100820.80;1672820;85;21366;-76
2021/11/19 05:36:17;;;;;;;9.08;4.25;;;;;;;11.20;79.90;100821.81;1672838;85;21186;-76
2021/11/19 05:38:47;;;;;;;10.53;2.87;;;;;;;11.23;79.86;100837.70;1672869;85;21852;-80
2021/11/19 05:41:19;;;;;;;13.10;2.87;;;;;;;11.32;79.86;100834.38;1674608;84;21588;-81
2021/11/19 05:43:49;;;;;;;10.13;2.62;;;;;;;11.37;79.86;100824.83;1659558;85;21114;-83
2021/11/19 05:46:18;;;;;;;9.65;2.47;;;;;;;11.43;79.86;100820.61;1676083;84;21080;-75
2021/11/19 05:48:46;;;;;;;12.28;2.50;;;;;;;11.48;79.81;100820.26;1676407;85;21095;-78
2021/11/19 05:51:16;;;;;;;7.87;2.12;;;;;;;11.53;79.80;100833.56;1676022;84;21818;-73
2021/11/19 05:53:44;;;;;;;10.18;3.75;;;;;;;11.58;79.78;100837.20;1676172;84;21146;-73
2021/11/19 05:56:17;;;;;;;10.70;3.22;;;;;;;11.63;79.77;100841.23;1676388;84;21112;-77
2021/11/19 05:58:46;;;;;;;13.55;3.40;;;;;;;11.69;79.74;100836.09;1675880;85;21095;-76
2021/11/19 06:01:17;;;;;;;9.23;2.22;;;;;;;11.72;79.72;100830.89;1676392;84;21071;-76
2021/11/19 06:03:45;;;;;;;8.35;2.15;;;;;;;11.74;79.68;100829.18;1676444;85;22587;-74
2021/11/19 06:06:13;;;;;;;9.05;2.20;;;;;;;11.77;79.76;100837.16;1676881;84;21091;-75
2021/11/19 06:08:41;;;;;;;6.85;2.05;;;;;;;11.81;79.86;100844.28;1676253;84;21099;-74
2021/11/19 06:11:15;;;;;;;8.93;1.92;;;;;;;11.84;79.92;100852.67;1676103;84;21696;-75
2021/11/19 06:13:45;;;;;;;;;;;;;;;11.87;79.93;100852.31;1677972;85;21114;-75
2021/11/19 06:16:18;;;;;;;11.75;2.65;;;;;;;11.90;80.02;100851.95;1676152;84;21570;-74
2021/11/19 06:18:50;;;;;;;11.75;2.45;;;;;;;11.91;80.12;100858.58;1676329;85;21629;-74
2021/11/19 06:21:27;;;;;;;8.25;2.27;;;;;;;11.90;80.22;100858.14;1676411;85;21589;-75
2021/11/19 06:23:57;;;;;;;8.18;2.30;;;;;;;11.89;80.35;100859.39;1704702;83;21046;-75
2021/11/19 06:26:25;;;;;;;12.75;2.50;;;;;;;11.89;80.55;100866.86;1722706;83;21273;-75
2021/11/19 06:28:54;;;;;;;6.53;1.70;;;;;;;11.88;80.71;100871.69;1723139;83;21796;-74
2021/11/19 06:31:22;;;;;;;4.83;2.15;;;;;;;11.87;80.87;100869.45;1722958;83;21082;-74
2021/11/19 06:33:49;;;;;;;7.70;2.90;;;;;;;11.87;81.01;100873.41;1705252;84;21098;-75
2021/11/19 06:36:16;;;;;;;6.28;1.98;;;;;;;11.86;81.12;100869.02;1705353;84;21680;-74
2021/11/19 06:38:45;;;;;;;10.32;3.52;;;;;;;11.86;81.23;100876.92;1707544;84;21110;-75
2021/11/19 06:41:11;;;;;;;12.33;5.95;;;;;;;11.85;81.39;100867.66;1707546;84;21284;-74
2021/11/19 06:43:38;;;;;;;16.55;11.03;;;;;;;11.86;81.50;100878.65;1707457;84;21071;-74
2021/11/19 06:46:05;;;;;;;10.18;4.37;;;;;;;11.84;81.59;100878.64;1707575;84;21059;-75
2021/11/19 06:48:31;;;;;;;10.43;5.45;;;;;;;11.85;81.75;100877.77;1707674;84;21588;-75
2021/11/19 06:51:01;;;;;;;8.83;5.05;;;;;;;11.86;81.78;100884.84;1707680;84;21074;-74
2021/11/19 06:53:27;;;;;;;11.53;7.95;;;;;;;11.85;81.87;100876.89;1707329;84;22022;-75
2021/11/19 06:55:53;;;;;;;8.55;6.78;;;;;;;11.84;82.01;100869.41;1707206;84;21552;-75
2021/11/19 06:58:21;;;;;;;10.63;4.90;;;;;;;11.86;82.09;100872.97;1707237;84;21490;-75
2021/11/19 07:00:47;;;;;;;12.43;4.70;;;;;;;11.86;82.17;100875.61;1707507;84;21731;-75
2021/11/19 07:03:15;;;;;;;11.48;5.25;;;;;;;11.89;82.28;100881.37;1707489;84;21337;-75
2021/11/19 07:05:41;;;;;;;12.40;8.65;;;;;;;11.90;82.39;100880.97;1707439;83;21775;-75
2021/11/19 07:08:10;;;;;;;7.33;5.40;;;;;;;11.92;82.48;100884.52;1707424;82;21054;-75
2021/11/19 07:10:38;;;;;;;13.15;6.70;;;;;;;11.93;82.53;100887.64;1707638;84;21348;-74
2021/11/19 07:13:05;;;;;;;10.55;9.05;;;;;;;11.94;82.59;100885.47;1707243;84;21346;-75
2021/11/19 07:15:32;;;;;;;10.60;8.15;;;;;;;11.96;82.69;100889.03;1707599;84;21580;-75
2021/11/19 07:17:58;;;;;;;18.32;14.38;;;;;;;11.98;82.79;100886.88;1707881;83;21762;-75
2021/11/19 07:20:26;;;;;;;32.75;22.32;;;;;;;11.99;82.81;100888.67;1707566;84;21623;-75
2021/11/19 07:22:55;;;;;;;31.07;23.35;;;;;;;12.02;82.88;100891.36;1707239;83;21157;-74
2021/11/19 07:25:24;;;;;;;35.52;27.62;;;;;;;12.04;82.97;100889.64;1704539;83;21691;-75
2021/11/19 07:27:56;;;;;;;17.30;14.47;;;;;;;12.07;82.98;100886.20;1700146;84;21874;-75
2021/11/19 07:30:30;;;;;;;10.10;7.58;;;;;;;12.09;83.04;100885.80;1700269;83;21833;-75
2021/11/19 07:32:57;;;;;;;9.58;7.70;;;;;;;12.11;83.06;100887.16;1700525;82;21078;-75
2021/11/19 07:35:23;;;;;;;20.50;16.30;;;;;;;12.12;83.12;100885.84;1704658;84;21091;-75
2021/11/19 07:37:50;;;;;;;9.18;6.92;;;;;;;12.14;83.21;100880.59;1704754;84;21149;-75
2021/11/19 07:40:20;;;;;;;7.10;5.50;;;;;;;12.16;83.21;100886.80;1705009;84;21078;-75
2021/11/19 07:42:47;;;;;;;5.83;5.20;;;;;;;12.19;83.30;100886.43;1704854;84;22409;-75
2021/11/19 07:45:14;;;;;;;3.55;3.00;;;;;;;12.21;83.25;100883.39;1704211;84;21114;-75
2021/11/19 07:47:40;;;;;;;4.75;3.08;;;;;;;12.24;83.29;100883.91;1704389;84;21094;-75
2021/11/19 07:50:09;;;;;;;1.85;1.52;;;;;;;12.25;83.26;100880.39;1706868;82;21671;-75
2021/11/19 07:52:36;;;;;;;6.37;3.15;;;;;;;12.30;83.33;100876.09;1704576;84;21415;-75
2021/11/19 07:55:04;;;;;;;4.35;3.02;;;;;;;12.33;83.32;100882.77;1704946;82;21698;-75
2021/11/19 07:57:31;;;;;;;4.00;2.40;;;;;;;12.34;83.27;100870.02;1705369;82;21059;-75
2021/11/19 07:59:57;;;;;;;3.05;2.60;;;;;;;12.37;83.24;100870.49;1704535;82;21106;-76
2021/11/19 08:02:24;;;;;;;3.58;2.12;;;;;;;12.37;83.22;100876.69;1704310;84;21057;-75
2021/11/19 08:04:51;;;;;;;6.92;4.00;;;;;;;12.39;83.22;100872.77;1704242;83;21615;-75
2021/11/19 08:07:17;;;;;;;4.45;2.75;;;;;;;12.41;83.23;100875.88;1728554;82;21766;-75
2021/11/19 08:09:44;;;;;;;1.98;1.60;;;;;;;12.41;83.22;100871.04;1704052;84;21055;-75
2021/11/19 08:12:11;;;;;;;2.00;1.60;;;;;;;12.42;83.25;100869.72;1704112;84;21082;-75
2021/11/19 08:14:37;;;;;;;2.35;1.70;;;;;;;12.43;83.23;100874.59;1704159;84;21098;-75
2021/11/19 08:17:32;;;;;;;3.05;2.40;;;;;;;12.45;83.24;100879.47;1704269;84;21044;-75
2021/11/19 08:19:59;;;;;;;2.92;2.00;;;;;;;12.47;83.27;100875.11;1713765;82;22528;-75
2021/11/19 08:22:26;;;;;;;3.20;1.80;;;;;;;12.52;83.28;100872.55;1733619;82;21590;-75
2021/11/19 08:24:53;;;;;;;1.25;0.90;;;;;;;12.55;83.33;100871.30;1733794;82;21666;-75
2021/11/19 08:27:27;;;;;;;2.10;1.57;;;;;;;12.60;83.34;100871.84;1707413;82;21111;-75
2021/11/19 08:29:56;;;;;;;2.42;1.60;;;;;;;12.68;83.31;100877.25;1704417;84;21488;-75
2021/11/19 08:32:24;;;;;;;2.15;1.30;;;;;;;12.74;83.32;100872.08;1718600;82;21830;-73
2021/11/19 08:34:50;;;;;;;4.65;1.35;;;;;;;12.80;83.27;100872.62;1713719;82;21081;-75
2021/11/19 08:37:20;;;;;;;3.22;2.27;;;;;;;12.84;83.17;100872.72;1704525;84;21082;-73
2021/11/19 08:39:46;;;;;;;13.75;9.45;;;;;;;12.90;83.14;100875.02;1704243;82;21069;-74
2021/11/19 08:42:13;;;;;;;6.17;3.90;;;;;;;12.95;83.09;100872.00;1704494;82;21062;-74
2021/11/19 08:44:42;;;;;;;4.83;2.27;;;;;;;13.01;83.08;100874.33;1704300;84;21813;-74
2021/11/19 08:47:09;;;;;;;2.15;1.67;;;;;;;13.11;83.08;100871.40;1704542;84;21770;-74
2021/11/19 08:49:36;;;;;;;2.47;1.85;;;;;;;13.20;83.04;100874.64;1703967;82;21081;-74
2021/11/19 08:52:09;;;;;;;2.90;1.98;;;;;;;13.29;82.84;100869.91;1705814;82;21063;-74
2021/11/19 08:54:35;;;;;;;2.92;2.05;;;;;;;13.34;82.75;100862.98;1704508;84;21118;-74
2021/11/19 08:57:06;;;;;;;2.22;1.70;;;;;;;13.39;82.64;100859.55;1703568;84;22985;-74
2021/11/19 08:59:34;;;;;;;2.62;1.80;;;;;;;13.44;82.57;100855.66;1703488;84;21111;-74
2021/11/19 09:02:02;;;;;;;2.40;1.50;;;;;;;13.46;82.34;100855.66;1704170;84;21023;-74
2021/11/19 09:04:29;;;;;;;2.98;1.98;;;;;;;13.45;82.27;100862.71;1704309;84;21043;-74
2021/11/19 09:06:56;;;;;;;3.27;2.20;;;;;;;13.44;82.12;100852.11;1704454;84;21541;-74
2021/11/19 09:09:24;;;;;;;4.35;2.60;;;;;;;13.44;82.10;100856.08;1704122;84;21786;-74
2021/11/19 09:11:51;;;;;;;2.92;2.45;;;;;;;13.49;82.21;100854.39;1703976;84;21115;-74
2021/11/19 09:14:18;;;;;;;4.80;3.60;;;;;;;13.58;82.18;100843.52;1704430;84;21098;-74
2021/11/19 09:17:01;;;;;;;3.77;2.92;;;;;;;13.68;82.17;100843.20;1704385;84;21639;-74
2021/11/19 09:19:41;;;;;;;2.95;1.65;;;;;;;13.78;82.18;100843.80;1704571;84;21086;-74
2021/11/19 09:22:22;;;;;;;2.15;1.57;;;;;;;13.92;82.00;100845.73;1704234;84;21783;-74
2021/11/19 09:24:49;;;;;;;1.95;1.50;;;;;;;14.05;81.79;100848.10;1702493;84;21071;-74
2021/11/19 09:27:18;;;;;;;1.90;1.40;;;;;;;14.14;81.57;100856.16;1701462;84;21750;-74
2021/11/19 09:30:00;;;;;;;1.70;1.27;;;;;;;14.12;81.31;100853.48;1701472;84;21131;-74
2021/11/19 09:32:27;;;;;;;3.22;1.98;;;;;;;14.07;81.05;100849.00;1701592;84;21083;-75
2021/11/19 09:34:56;;;;;;;3.52;1.45;;;;;;;13.99;80.91;100848.47;1701533;84;21758;-75
2021/11/19 09:37:24;;;;;;;2.45;1.42;;;;;;;13.91;80.81;100855.88;1702005;84;21094;-74
2021/11/19 09:39:53;;;;;;;2.50;1.95;;;;;;;13.83;80.88;100838.99;1676974;84;21616;-74
2021/11/19 09:42:48;;;;;;;3.40;2.50;;;;;;;13.79;80.87;100835.41;1701329;84;21098;-75
2021/11/19 09:45:36;;;;;;;2.15;1.62;;;;;;;13.78;80.92;100842.47;1701528;84;21379;-74
2021/11/19 09:48:41;;;;;;;2.60;1.45;;;;;;;13.77;80.94;100842.00;1701160;84;21837;-75
2021/11/19 09:51:45;;;;;;;3.90;1.90;;;;;;;13.81;80.99;100838.97;1701590;84;21087;-75
2021/11/19 09:54:57;;;;;;;3.30;1.72;;;;;;;13.81;80.93;100841.61;1701016;83;21111;-75
2021/11/19 09:58:04;;;;;;;3.58;1.70;;;;;;;13.81;81.01;100832.35;1700443;84;21565;-75
2021/11/19 10:01:13;;;;;;;2.92;1.65;;;;;;;13.84;80.93;100819.17;1700317;83;21091;-75
2021/11/19 10:04:03;;;;;;;5.35;2.40;;;;;;;13.87;81.01;100812.61;1701522;84;21694;-75
2021/11/19 10:06:53;;;;;;;5.37;2.15;;;;;;;13.90;80.93;100819.69;1701815;83;21560;-74
2021/11/19 10:09:28;;;;;;;6.55;2.47;;;;;;;13.90;80.84;100820.56;1701739;84;21087;-75
2021/11/19 10:12:21;;;;;;;4.10;2.10;;;;;;;13.95;80.88;100805.64;1700890;84;21668;-75
2021/11/19 10:14:58;;;;;;;5.30;2.90;;;;;;;14.02;80.92;100801.33;1701611;84;21087;-74
2021/11/19 10:17:45;;;;;;;4.47;3.27;;;;;;;14.03;80.64;100792.94;1669277;84;22975;-74
2021/11/19 10:20:23;;;;;;;3.80;1.80;;;;;;;14.00;80.55;100796.42;1701813;84;21656;-74
2021/11/19 10:23:01;;;;;;;5.97;2.08;;;;;;;14.00;80.55;100792.45;1701902;84;21102;-74
2021/11/19 10:25:48;;;;;;;9.43;7.58;;;;;;;14.00;80.58;100798.66;1701434;83;21569;-74
2021/11/19 10:28:23;;;;;;;3.00;2.30;;;;;;;14.00;80.45;100798.66;1701987;84;21652;-74
2021/11/19 10:30:53;;;;;;;7.37;2.77;;;;;;;13.97;80.39;100801.70;1699888;83;21862;-75
2021/11/19 10:33:46;;;;;;;4.62;2.15;;;;;;;13.94;80.37;100801.20;1701903;84;21071;-75
2021/11/19 10:36:50;;;;;;;3.58;2.35;;;;;;;13.89;80.32;100793.67;1701968;84;21790;-74
2021/11/19 10:39:47;;;;;;;3.52;1.85;;;;;;;13.87;80.34;100791.44;1701330;83;21118;-74
2021/11/19 10:43:04;;;;;;;4.25;1.42;;;;;;;13.85;80.41;100783.02;1643186;86;21089;-74
2021/11/19 10:45:55;;;;;;;2.20;1.50;;;;;;;13.85;80.45;100790.54;1677154;84;21709;-74
2021/11/19 10:49:08;;;;;;;3.10;1.45;;;;;;;13.87;80.33;100783.50;1649236;84;21068;-74
2021/11/19 10:52:18;;;;;;;2.05;1.20;;;;;;;13.84;80.41;100783.45;1677935;84;21581;-74
2021/11/19 10:55:11;;;;;;;4.20;2.05;;;;;;;13.81;80.32;100788.70;1678105;85;21124;-74
2021/11/19 10:58:24;;;;;;;4.53;1.80;;;;;;;13.74;80.25;100790.39;1678202;84;21072;-74
2021/11/19 11:01:21;;;;;;;3.83;2.30;;;;;;;13.70;80.27;100791.23;1677974;85;21764;-73
2021/11/19 11:04:00;;;;;;;4.40;2.70;;;;;;;13.77;80.42;100781.59;1677868;84;21845;-74
2021/11/19 11:06:45;;;;;;;3.40;2.00;;;;;;;13.78;80.28;100788.23;1677837;84;21196;-74
2021/11/19 11:09:31;;;;;;;3.90;2.65;;;;;;;13.85;80.45;100777.72;1677940;84;21197;-74
2021/11/19 11:12:16;;;;;;;5.72;3.40;;;;;;;13.97;80.40;100786.70;1678266;85;21543;-74
2021/11/19 11:14:45;;;;;;;6.05;3.25;;;;;;;14.00;80.06;100795.09;1678157;84;21772;-74
2021/11/19 11:17:20;;;;;;;8.03;3.08;;;;;;;14.02;80.01;100795.12;1678146;85;21621;-74
2021/11/19 11:19:47;;;;;;;5.08;2.50;;;;;;;14.03;79.93;100796.91;1675985;84;21135;-74
2021/11/19 11:22:18;;;;;;;8.70;2.70;;;;;;;14.00;79.73;100789.80;1678178;84;21064;-74
2021/11/19 11:25:01;;;;;;;6.30;2.40;;;;;;;13.93;79.67;100790.63;1688297;83;21788;-74
2021/11/19 11:27:40;;;;;;;6.35;2.65;;;;;;;13.89;79.73;100779.11;1718612;82;22831;-74
2021/11/19 11:30:11;;;;;;;11.83;7.72;;;;;;;13.87;79.77;100790.13;1717592;82;21083;-74
2021/11/19 11:33:15;;;;;;;11.28;4.37;;;;;;;13.87;79.76;100779.95;1718413;82;21094;-74
2021/11/19 11:36:10;;;;;;;11.20;4.63;;;;;;;13.91;79.82;100789.28;1718770;82;21111;-74
2021/11/19 11:38:51;;;;;;;9.25;3.25;;;;;;;13.92;79.73;100786.19;1716840;82;21122;-75
2021/11/19 11:41:48;;;;;;;10.43;3.40;;;;;;;13.87;79.71;100782.19;1645192;87;22586;-75
2021/11/19 11:44:38;;;;;;;11.03;3.55;;;;;;;13.90;79.76;100779.99;1618349;87;21112;-74
2021/11/19 11:47:12;;;;;;;13.40;4.00;;;;;;;13.94;79.89;100787.09;1640044;87;21149;-74
2021/11/19 11:49:48;;;;;;;11.83;4.12;;;;;;;14.00;79.75;100773.92;1655429;86;21719;-75
2021/11/19 11:52:32;;;;;;;14.20;3.83;;;;;;;14.03;79.71;100763.38;1638243;87;21146;-75